sensor_id;sensor_type;location;lat;lon;timestamp;P1;durP1;ratioP1;P2;durP2;ratioP2
8895;SDS011;4484;48.928;10.066;2023-04-16T00:01:03;3.77;;;3.30;;
8895;SDS011;4484;48.928;10.066;2023-04-16T00:03:30;3.43;;;3.10;;
8895;SDS011;4484;48.928;10.066;2023-04-16T00:05:58;3.80;;;3.47;;
8895;SDS011;4484;48.928;10.066;2023-04-16T00:08:25;3.60;;;3.30;;
8895;SDS011;4484;48.928;10.066;2023-04-16T00:10:52;4.37;;;3.97;;
8895;SDS011;4484;48.928;10.066;2023-04-16T00:13:19;3.90;;;3.50;;
8895;SDS011;4484;48.928;10.066;2023-04-16T00:15:46;3.40;;;3.10;;
8895;SDS011;4484;48.928;10.066;2023-04-16T00:18:13;3.10;;;2.80;;
8895;SDS011;4484;48.928;10.066;2023-04-16T00:20:40;3.87;;;3.47;;
8895;SDS011;4484;48.928;10.066;2023-04-16T00:23:07;3.70;;;3.30;;
8895;SDS011;4484;48.928;10.066;2023-04-16T00:25:33;4.07;;;3.67;;
8895;SDS011;4484;48.928;10.066;2023-04-16T00:28:01;3.43;;;3.13;;
8895;SDS011;4484;48.928;10.066;2023-04-16T00:30:28;3.50;;;3.20;;
8895;SDS011;4484;48.928;10.066;2023-04-16T00:32:54;3.90;;;3.37;;
8895;SDS011;4484;48.928;10.066;2023-04-16T00:35:21;3.90;;;3.50;;
8895;SDS011;4484;48.928;10.066;2023-04-16T00:37:48;4.40;;;4.00;;
8895;SDS011;4484;48.928;10.066;2023-04-16T00:40:15;3.27;;;2.97;;
8895;SDS011;4484;48.928;10.066;2023-04-16T00:42:42;5.20;;;4.20;;
8895;SDS011;4484;48.928;10.066;2023-04-16T00:45:09;4.53;;;4.13;;
8895;SDS011;4484;48.928;10.066;2023-04-16T00:47:37;3.93;;;3.60;;
8895;SDS011;4484;48.928;10.066;2023-04-16T00:50:04;3.63;;;3.27;;
8895;SDS011;4484;48.928;10.066;2023-04-16T00:52:31;3.70;;;3.40;;
8895;SDS011;4484;48.928;10.066;2023-04-16T00:54:59;3.13;;;2.83;;
8895;SDS011;4484;48.928;10.066;2023-04-16T00:57:26;3.10;;;2.80;;
8895;SDS011;4484;48.928;10.066;2023-04-16T00:59:53;3.43;;;3.13;;
8895;SDS011;4484;48.928;10.066;2023-04-16T01:02:21;3.20;;;2.87;;
8895;SDS011;4484;48.928;10.066;2023-04-16T01:04:49;3.40;;;3.10;;
8895;SDS011;4484;48.928;10.066;2023-04-16T01:07:16;3.60;;;3.20;;
8895;SDS011;4484;48.928;10.066;2023-04-16T01:09:43;3.03;;;2.73;;
8895;SDS011;4484;48.928;10.066;2023-04-16T01:12:10;2.80;;;2.50;;
8895;SDS011;4484;48.928;10.066;2023-04-16T01:14:37;3.00;;;2.80;;
8895;SDS011;4484;48.928;10.066;2023-04-16T01:17:04;3.13;;;2.83;;
8895;SDS011;4484;48.928;10.066;2023-04-16T01:19:31;3.37;;;3.03;;
8895;SDS011;4484;48.928;10.066;2023-04-16T01:22:01;2.67;;;2.47;;
8895;SDS011;4484;48.928;10.066;2023-04-16T01:24:29;3.83;;;2.77;;
8895;SDS011;4484;48.928;10.066;2023-04-16T01:26:57;2.20;;;2.00;;
8895;SDS011;4484;48.928;10.066;2023-04-16T01:29:25;2.67;;;2.47;;
8895;SDS011;4484;48.928;10.066;2023-04-16T01:31:54;3.00;;;2.70;;
8895;SDS011;4484;48.928;10.066;2023-04-16T01:34:27;2.27;;;2.07;;
8895;SDS011;4484;48.928;10.066;2023-04-16T01:36:54;2.60;;;2.30;;
8895;SDS011;4484;48.928;10.066;2023-04-16T01:39:22;2.30;;;2.10;;
8895;SDS011;4484;48.928;10.066;2023-04-16T01:41:49;2.80;;;2.53;;
8895;SDS011;4484;48.928;10.066;2023-04-16T01:44:16;2.70;;;2.50;;
8895;SDS011;4484;48.928;10.066;2023-04-16T01:46:43;2.83;;;2.53;;
8895;SDS011;4484;48.928;10.066;2023-04-16T01:49:10;2.83;;;2.50;;
8895;SDS011;4484;48.928;10.066;2023-04-16T01:51:37;3.20;;;2.90;;
8895;SDS011;4484;48.928;10.066;2023-04-16T01:54:04;2.50;;;2.30;;
8895;SDS011;4484;48.928;10.066;2023-04-16T01:56:31;2.90;;;2.57;;
8895;SDS011;4484;48.928;10.066;2023-04-16T01:58:58;2.60;;;2.40;;
8895;SDS011;4484;48.928;10.066;2023-04-16T02:01:30;3.40;;;3.10;;
8895;SDS011;4484;48.928;10.066;2023-04-16T02:03:57;2.53;;;2.20;;
8895;SDS011;4484;48.928;10.066;2023-04-16T02:06:25;2.57;;;2.37;;
8895;SDS011;4484;48.928;10.066;2023-04-16T02:08:52;2.50;;;2.30;;
8895;SDS011;4484;48.928;10.066;2023-04-16T02:11:19;2.60;;;2.40;;
8895;SDS011;4484;48.928;10.066;2023-04-16T02:13:47;2.03;;;1.83;;
8895;SDS011;4484;48.928;10.066;2023-04-16T02:16:16;2.93;;;2.50;;
8895;SDS011;4484;48.928;10.066;2023-04-16T02:18:48;2.40;;;2.20;;
8895;SDS011;4484;48.928;10.066;2023-04-16T02:21:17;2.90;;;2.50;;
8895;SDS011;4484;48.928;10.066;2023-04-16T02:23:43;2.40;;;2.20;;
8895;SDS011;4484;48.928;10.066;2023-04-16T02:26:14;2.57;;;2.30;;
8895;SDS011;4484;48.928;10.066;2023-04-16T02:28:41;1.97;;;1.87;;
8895;SDS011;4484;48.928;10.066;2023-04-16T02:31:10;2.20;;;2.00;;
8895;SDS011;4484;48.928;10.066;2023-04-16T02:33:41;2.27;;;2.07;;
8895;SDS011;4484;48.928;10.066;2023-04-16T02:36:09;3.27;;;1.90;;
8895;SDS011;4484;48.928;10.066;2023-04-16T02:38:36;2.47;;;2.27;;
8895;SDS011;4484;48.928;10.066;2023-04-16T02:41:04;2.10;;;1.90;;
8895;SDS011;4484;48.928;10.066;2023-04-16T02:43:32;1.90;;;1.70;;
8895;SDS011;4484;48.928;10.066;2023-04-16T02:46:00;1.80;;;1.70;;
8895;SDS011;4484;48.928;10.066;2023-04-16T02:48:27;2.07;;;1.90;;
8895;SDS011;4484;48.928;10.066;2023-04-16T02:50:54;2.03;;;1.83;;
8895;SDS011;4484;48.928;10.066;2023-04-16T02:53:21;1.90;;;1.70;;
8895;SDS011;4484;48.928;10.066;2023-04-16T02:55:51;1.90;;;1.80;;
8895;SDS011;4484;48.928;10.066;2023-04-16T02:58:19;2.10;;;1.90;;
8895;SDS011;4484;48.928;10.066;2023-04-16T03:00:47;2.20;;;2.00;;
8895;SDS011;4484;48.928;10.066;2023-04-16T03:03:14;1.70;;;1.60;;
8895;SDS011;4484;48.928;10.066;2023-04-16T03:05:41;1.63;;;1.53;;
8895;SDS011;4484;48.928;10.066;2023-04-16T03:08:08;1.80;;;1.70;;
8895;SDS011;4484;48.928;10.066;2023-04-16T03:10:36;2.00;;;1.90;;
8895;SDS011;4484;48.928;10.066;2023-04-16T03:13:03;2.03;;;1.83;;
8895;SDS011;4484;48.928;10.066;2023-04-16T03:15:30;1.70;;;1.60;;
8895;SDS011;4484;48.928;10.066;2023-04-16T03:17:57;2.20;;;2.00;;
8895;SDS011;4484;48.928;10.066;2023-04-16T03:20:24;2.13;;;1.93;;
8895;SDS011;4484;48.928;10.066;2023-04-16T03:22:51;2.90;;;1.80;;
8895;SDS011;4484;48.928;10.066;2023-04-16T03:25:18;1.93;;;1.73;;
8895;SDS011;4484;48.928;10.066;2023-04-16T03:27:46;1.87;;;1.77;;
8895;SDS011;4484;48.928;10.066;2023-04-16T03:30:14;1.80;;;1.60;;
8895;SDS011;4484;48.928;10.066;2023-04-16T03:32:42;2.30;;;1.90;;
8895;SDS011;4484;48.928;10.066;2023-04-16T03:35:09;2.30;;;2.10;;
8895;SDS011;4484;48.928;10.066;2023-04-16T03:37:37;2.30;;;2.10;;
8895;SDS011;4484;48.928;10.066;2023-04-16T03:40:04;2.20;;;2.00;;
8895;SDS011;4484;48.928;10.066;2023-04-16T03:42:32;2.47;;;1.97;;
8895;SDS011;4484;48.928;10.066;2023-04-16T03:45:00;1.83;;;1.73;;
8895;SDS011;4484;48.928;10.066;2023-04-16T03:47:28;1.80;;;1.60;;
8895;SDS011;4484;48.928;10.066;2023-04-16T03:49:58;1.50;;;1.40;;
8895;SDS011;4484;48.928;10.066;2023-04-16T03:52:26;2.47;;;1.87;;
8895;SDS011;4484;48.928;10.066;2023-04-16T03:54:53;1.80;;;1.70;;
8895;SDS011;4484;48.928;10.066;2023-04-16T03:57:24;2.07;;;1.63;;
8895;SDS011;4484;48.928;10.066;2023-04-16T03:59:55;2.03;;;1.70;;
8895;SDS011;4484;48.928;10.066;2023-04-16T04:02:24;2.13;;;1.93;;
8895;SDS011;4484;48.928;10.066;2023-04-16T04:04:52;2.53;;;1.90;;
8895;SDS011;4484;48.928;10.066;2023-04-16T04:07:19;1.90;;;1.70;;
8895;SDS011;4484;48.928;10.066;2023-04-16T04:09:46;2.40;;;2.20;;
8895;SDS011;4484;48.928;10.066;2023-04-16T04:12:13;2.67;;;2.27;;
8895;SDS011;4484;48.928;10.066;2023-04-16T04:14:42;2.30;;;2.10;;
8895;SDS011;4484;48.928;10.066;2023-04-16T04:17:09;2.50;;;2.30;;
8895;SDS011;4484;48.928;10.066;2023-04-16T04:19:36;2.77;;;2.47;;
8895;SDS011;4484;48.928;10.066;2023-04-16T04:22:08;2.83;;;2.53;;
8895;SDS011;4484;48.928;10.066;2023-04-16T04:24:36;2.87;;;2.20;;
8895;SDS011;4484;48.928;10.066;2023-04-16T04:27:03;2.90;;;2.23;;
8895;SDS011;4484;48.928;10.066;2023-04-16T04:29:30;2.90;;;2.47;;
8895;SDS011;4484;48.928;10.066;2023-04-16T04:31:57;2.83;;;2.37;;
8895;SDS011;4484;48.928;10.066;2023-04-16T04:34:24;2.53;;;2.33;;
8895;SDS011;4484;48.928;10.066;2023-04-16T04:36:53;2.70;;;2.30;;
8895;SDS011;4484;48.928;10.066;2023-04-16T04:39:20;7.87;;;2.50;;
8895;SDS011;4484;48.928;10.066;2023-04-16T04:41:48;4.93;;;3.37;;
8895;SDS011;4484;48.928;10.066;2023-04-16T04:44:16;2.90;;;2.40;;
8895;SDS011;4484;48.928;10.066;2023-04-16T04:46:43;2.67;;;2.27;;
8895;SDS011;4484;48.928;10.066;2023-04-16T04:49:10;3.53;;;2.80;;
8895;SDS011;4484;48.928;10.066;2023-04-16T04:51:37;3.73;;;2.50;;
8895;SDS011;4484;48.928;10.066;2023-04-16T04:54:04;2.53;;;2.33;;
8895;SDS011;4484;48.928;10.066;2023-04-16T04:56:31;3.63;;;1.93;;
8895;SDS011;4484;48.928;10.066;2023-04-16T04:58:58;2.10;;;1.90;;
8895;SDS011;4484;48.928;10.066;2023-04-16T05:01:25;2.00;;;1.80;;
8895;SDS011;4484;48.928;10.066;2023-04-16T05:03:52;2.67;;;2.30;;
8895;SDS011;4484;48.928;10.066;2023-04-16T05:06:19;2.20;;;1.93;;
8895;SDS011;4484;48.928;10.066;2023-04-16T05:08:46;2.43;;;1.80;;
8895;SDS011;4484;48.928;10.066;2023-04-16T05:11:12;2.10;;;1.70;;
8895;SDS011;4484;48.928;10.066;2023-04-16T05:13:39;2.30;;;2.07;;
8895;SDS011;4484;48.928;10.066;2023-04-16T05:16:06;3.13;;;2.20;;
8895;SDS011;4484;48.928;10.066;2023-04-16T05:18:33;2.60;;;2.20;;
8895;SDS011;4484;48.928;10.066;2023-04-16T05:21:00;2.40;;;2.20;;
8895;SDS011;4484;48.928;10.066;2023-04-16T05:23:27;3.33;;;2.37;;
8895;SDS011;4484;48.928;10.066;2023-04-16T05:25:55;4.27;;;2.70;;
8895;SDS011;4484;48.928;10.066;2023-04-16T05:28:22;3.13;;;2.40;;
8895;SDS011;4484;48.928;10.066;2023-04-16T05:30:49;2.10;;;1.90;;
8895;SDS011;4484;48.928;10.066;2023-04-16T05:33:16;2.70;;;2.50;;
8895;SDS011;4484;48.928;10.066;2023-04-16T05:35:43;3.67;;;2.50;;
8895;SDS011;4484;48.928;10.066;2023-04-16T05:38:10;3.07;;;2.27;;
8895;SDS011;4484;48.928;10.066;2023-04-16T05:40:37;3.60;;;2.63;;
8895;SDS011;4484;48.928;10.066;2023-04-16T05:43:04;3.13;;;2.57;;
8895;SDS011;4484;48.928;10.066;2023-04-16T05:45:31;3.13;;;2.50;;
8895;SDS011;4484;48.928;10.066;2023-04-16T05:47:58;3.30;;;2.77;;
8895;SDS011;4484;48.928;10.066;2023-04-16T05:50:25;3.60;;;2.40;;
8895;SDS011;4484;48.928;10.066;2023-04-16T05:52:52;3.37;;;2.50;;
8895;SDS011;4484;48.928;10.066;2023-04-16T05:55:19;3.20;;;2.80;;
8895;SDS011;4484;48.928;10.066;2023-04-16T05:57:46;3.63;;;2.43;;
8895;SDS011;4484;48.928;10.066;2023-04-16T06:00:13;2.50;;;2.30;;
8895;SDS011;4484;48.928;10.066;2023-04-16T06:02:40;2.97;;;2.50;;
8895;SDS011;4484;48.928;10.066;2023-04-16T06:05:08;2.97;;;2.60;;
8895;SDS011;4484;48.928;10.066;2023-04-16T06:07:35;3.13;;;2.83;;
8895;SDS011;4484;48.928;10.066;2023-04-16T06:10:02;2.53;;;2.33;;
8895;SDS011;4484;48.928;10.066;2023-04-16T06:12:29;3.27;;;2.63;;
8895;SDS011;4484;48.928;10.066;2023-04-16T06:14:56;4.13;;;2.97;;
8895;SDS011;4484;48.928;10.066;2023-04-16T06:17:23;3.73;;;3.13;;
8895;SDS011;4484;48.928;10.066;2023-04-16T06:19:50;3.93;;;3.10;;
8895;SDS011;4484;48.928;10.066;2023-04-16T06:22:17;3.80;;;3.03;;
8895;SDS011;4484;48.928;10.066;2023-04-16T06:24:44;3.67;;;2.87;;
8895;SDS011;4484;48.928;10.066;2023-04-16T06:27:11;4.40;;;3.33;;
8895;SDS011;4484;48.928;10.066;2023-04-16T06:29:38;4.17;;;3.30;;
8895;SDS011;4484;48.928;10.066;2023-04-16T06:32:07;3.57;;;2.70;;
8895;SDS011;4484;48.928;10.066;2023-04-16T06:34:34;4.33;;;3.47;;
8895;SDS011;4484;48.928;10.066;2023-04-16T06:37:01;3.93;;;3.20;;
8895;SDS011;4484;48.928;10.066;2023-04-16T06:39:28;4.70;;;3.53;;
8895;SDS011;4484;48.928;10.066;2023-04-16T06:41:55;3.70;;;3.40;;
8895;SDS011;4484;48.928;10.066;2023-04-16T06:44:22;5.43;;;3.57;;
8895;SDS011;4484;48.928;10.066;2023-04-16T06:46:49;4.10;;;3.70;;
8895;SDS011;4484;48.928;10.066;2023-04-16T06:49:16;4.80;;;3.60;;
8895;SDS011;4484;48.928;10.066;2023-04-16T06:51:43;5.07;;;3.80;;
8895;SDS011;4484;48.928;10.066;2023-04-16T06:54:10;5.13;;;4.23;;
8895;SDS011;4484;48.928;10.066;2023-04-16T06:56:37;5.13;;;4.00;;
8895;SDS011;4484;48.928;10.066;2023-04-16T06:59:04;4.87;;;4.00;;
8895;SDS011;4484;48.928;10.066;2023-04-16T07:01:31;5.60;;;3.93;;
8895;SDS011;4484;48.928;10.066;2023-04-16T07:03:58;4.67;;;3.93;;
8895;SDS011;4484;48.928;10.066;2023-04-16T07:06:25;5.37;;;4.47;;
8895;SDS011;4484;48.928;10.066;2023-04-16T07:08:52;5.83;;;4.53;;
8895;SDS011;4484;48.928;10.066;2023-04-16T07:11:19;5.93;;;4.93;;
8895;SDS011;4484;48.928;10.066;2023-04-16T07:13:47;7.63;;;5.47;;
8895;SDS011;4484;48.928;10.066;2023-04-16T07:16:16;6.10;;;4.80;;
8895;SDS011;4484;48.928;10.066;2023-04-16T07:18:43;7.57;;;5.33;;
8895;SDS011;4484;48.928;10.066;2023-04-16T07:21:10;6.50;;;5.00;;
8895;SDS011;4484;48.928;10.066;2023-04-16T07:23:37;6.10;;;4.90;;
8895;SDS011;4484;48.928;10.066;2023-04-16T07:26:04;5.27;;;4.60;;
8895;SDS011;4484;48.928;10.066;2023-04-16T07:28:31;7.17;;;5.57;;
8895;SDS011;4484;48.928;10.066;2023-04-16T07:30:58;7.93;;;4.97;;
8895;SDS011;4484;48.928;10.066;2023-04-16T07:33:25;8.93;;;6.30;;
8895;SDS011;4484;48.928;10.066;2023-04-16T07:35:52;8.13;;;5.53;;
8895;SDS011;4484;48.928;10.066;2023-04-16T07:38:19;7.30;;;5.60;;
8895;SDS011;4484;48.928;10.066;2023-04-16T07:40:46;8.37;;;5.97;;
8895;SDS011;4484;48.928;10.066;2023-04-16T07:43:13;8.90;;;5.97;;
8895;SDS011;4484;48.928;10.066;2023-04-16T07:45:41;8.37;;;6.37;;
8895;SDS011;4484;48.928;10.066;2023-04-16T07:48:08;6.67;;;5.97;;
8895;SDS011;4484;48.928;10.066;2023-04-16T07:50:35;6.50;;;5.60;;
8895;SDS011;4484;48.928;10.066;2023-04-16T07:53:02;7.17;;;5.93;;
8895;SDS011;4484;48.928;10.066;2023-04-16T07:55:31;7.33;;;5.80;;
8895;SDS011;4484;48.928;10.066;2023-04-16T07:57:58;6.17;;;5.23;;
8895;SDS011;4484;48.928;10.066;2023-04-16T08:00:24;6.97;;;5.30;;
8895;SDS011;4484;48.928;10.066;2023-04-16T08:02:51;7.57;;;5.20;;
8895;SDS011;4484;48.928;10.066;2023-04-16T08:05:19;5.90;;;5.10;;
8895;SDS011;4484;48.928;10.066;2023-04-16T08:07:46;6.03;;;4.90;;
8895;SDS011;4484;48.928;10.066;2023-04-16T08:10:13;7.70;;;5.00;;
8895;SDS011;4484;48.928;10.066;2023-04-16T08:12:40;6.57;;;4.90;;
8895;SDS011;4484;48.928;10.066;2023-04-16T08:15:07;5.50;;;4.73;;
8895;SDS011;4484;48.928;10.066;2023-04-16T08:17:34;6.73;;;4.73;;
8895;SDS011;4484;48.928;10.066;2023-04-16T08:20:03;6.13;;;4.77;;
8895;SDS011;4484;48.928;10.066;2023-04-16T08:22:31;6.17;;;5.00;;
8895;SDS011;4484;48.928;10.066;2023-04-16T08:24:59;6.27;;;4.60;;
8895;SDS011;4484;48.928;10.066;2023-04-16T08:27:25;5.70;;;4.47;;
8895;SDS011;4484;48.928;10.066;2023-04-16T08:29:52;6.83;;;5.17;;
8895;SDS011;4484;48.928;10.066;2023-04-16T08:32:19;7.03;;;4.73;;
8895;SDS011;4484;48.928;10.066;2023-04-16T08:34:46;7.30;;;4.80;;
8895;SDS011;4484;48.928;10.066;2023-04-16T08:37:13;5.50;;;4.40;;
8895;SDS011;4484;48.928;10.066;2023-04-16T08:39:40;4.83;;;4.27;;
8895;SDS011;4484;48.928;10.066;2023-04-16T08:42:10;5.10;;;4.53;;
8895;SDS011;4484;48.928;10.066;2023-04-16T08:44:45;7.23;;;4.80;;
8895;SDS011;4484;48.928;10.066;2023-04-16T08:47:15;5.87;;;4.47;;
8895;SDS011;4484;48.928;10.066;2023-04-16T08:49:42;5.73;;;4.40;;
8895;SDS011;4484;48.928;10.066;2023-04-16T08:52:18;6.03;;;4.60;;
8895;SDS011;4484;48.928;10.066;2023-04-16T08:55:03;6.80;;;5.17;;
8895;SDS011;4484;48.928;10.066;2023-04-16T08:57:38;6.00;;;4.87;;
8895;SDS011;4484;48.928;10.066;2023-04-16T09:00:13;6.77;;;5.10;;
8895;SDS011;4484;48.928;10.066;2023-04-16T09:02:41;7.00;;;4.83;;
8895;SDS011;4484;48.928;10.066;2023-04-16T09:05:09;7.47;;;5.63;;
8895;SDS011;4484;48.928;10.066;2023-04-16T09:07:38;8.27;;;5.40;;
8895;SDS011;4484;48.928;10.066;2023-04-16T09:10:07;7.40;;;5.63;;
8895;SDS011;4484;48.928;10.066;2023-04-16T09:12:35;6.93;;;5.57;;
8895;SDS011;4484;48.928;10.066;2023-04-16T09:15:02;9.33;;;5.60;;
8895;SDS011;4484;48.928;10.066;2023-04-16T09:17:31;6.73;;;5.07;;
8895;SDS011;4484;48.928;10.066;2023-04-16T09:19:59;5.93;;;5.20;;
8895;SDS011;4484;48.928;10.066;2023-04-16T09:22:26;5.23;;;4.67;;
8895;SDS011;4484;48.928;10.066;2023-04-16T09:24:53;5.53;;;4.40;;
8895;SDS011;4484;48.928;10.066;2023-04-16T09:27:20;7.33;;;4.57;;
8895;SDS011;4484;48.928;10.066;2023-04-16T09:29:51;6.20;;;4.87;;
8895;SDS011;4484;48.928;10.066;2023-04-16T09:32:19;6.60;;;4.83;;
8895;SDS011;4484;48.928;10.066;2023-04-16T09:34:58;5.87;;;5.13;;
8895;SDS011;4484;48.928;10.066;2023-04-16T09:37:30;6.47;;;4.90;;
8895;SDS011;4484;48.928;10.066;2023-04-16T09:42:28;5.17;;;4.10;;
8895;SDS011;4484;48.928;10.066;2023-04-16T09:44:59;5.90;;;4.33;;
8895;SDS011;4484;48.928;10.066;2023-04-16T09:47:43;5.67;;;4.47;;
8895;SDS011;4484;48.928;10.066;2023-04-16T09:50:18;8.23;;;4.70;;
8895;SDS011;4484;48.928;10.066;2023-04-16T09:52:48;5.77;;;3.93;;
8895;SDS011;4484;48.928;10.066;2023-04-16T09:55:22;4.83;;;4.17;;
8895;SDS011;4484;48.928;10.066;2023-04-16T09:57:58;4.77;;;4.27;;
8895;SDS011;4484;48.928;10.066;2023-04-16T10:00:27;6.63;;;4.20;;
8895;SDS011;4484;48.928;10.066;2023-04-16T10:03:04;6.33;;;4.57;;
8895;SDS011;4484;48.928;10.066;2023-04-16T10:05:33;5.63;;;3.80;;
8895;SDS011;4484;48.928;10.066;2023-04-16T10:08:00;4.67;;;3.60;;
8895;SDS011;4484;48.928;10.066;2023-04-16T10:10:27;5.00;;;3.70;;
8895;SDS011;4484;48.928;10.066;2023-04-16T10:12:55;4.47;;;3.97;;
8895;SDS011;4484;48.928;10.066;2023-04-16T10:15:23;4.03;;;3.37;;
8895;SDS011;4484;48.928;10.066;2023-04-16T10:17:50;4.20;;;3.50;;
8895;SDS011;4484;48.928;10.066;2023-04-16T10:20:18;3.60;;;2.93;;
8895;SDS011;4484;48.928;10.066;2023-04-16T10:22:45;4.57;;;3.20;;
8895;SDS011;4484;48.928;10.066;2023-04-16T10:25:12;4.90;;;3.10;;
8895;SDS011;4484;48.928;10.066;2023-04-16T10:27:39;4.87;;;3.40;;
8895;SDS011;4484;48.928;10.066;2023-04-16T10:30:07;4.03;;;3.00;;
8895;SDS011;4484;48.928;10.066;2023-04-16T10:32:34;3.97;;;3.33;;
8895;SDS011;4484;48.928;10.066;2023-04-16T10:35:03;4.30;;;3.27;;
8895;SDS011;4484;48.928;10.066;2023-04-16T10:37:31;4.30;;;3.33;;
8895;SDS011;4484;48.928;10.066;2023-04-16T10:39:58;3.70;;;3.10;;
8895;SDS011;4484;48.928;10.066;2023-04-16T10:42:25;5.07;;;3.33;;
8895;SDS011;4484;48.928;10.066;2023-04-16T10:44:52;4.80;;;3.30;;
8895;SDS011;4484;48.928;10.066;2023-04-16T10:47:19;4.50;;;3.20;;
8895;SDS011;4484;48.928;10.066;2023-04-16T10:49:50;3.57;;;3.10;;
8895;SDS011;4484;48.928;10.066;2023-04-16T10:52:17;4.43;;;3.40;;
8895;SDS011;4484;48.928;10.066;2023-04-16T10:54:45;3.90;;;3.03;;
8895;SDS011;4484;48.928;10.066;2023-04-16T10:57:16;4.50;;;3.07;;
8895;SDS011;4484;48.928;10.066;2023-04-16T10:59:44;3.40;;;2.93;;
8895;SDS011;4484;48.928;10.066;2023-04-16T11:02:17;4.33;;;3.33;;
8895;SDS011;4484;48.928;10.066;2023-04-16T11:04:45;3.60;;;3.30;;
8895;SDS011;4484;48.928;10.066;2023-04-16T11:07:30;3.27;;;2.87;;
8895;SDS011;4484;48.928;10.066;2023-04-16T11:10:04;3.27;;;2.90;;
8895;SDS011;4484;48.928;10.066;2023-04-16T11:17:45;3.40;;;2.90;;
8895;SDS011;4484;48.928;10.066;2023-04-16T11:20:17;3.60;;;2.53;;
8895;SDS011;4484;48.928;10.066;2023-04-16T11:22:49;3.27;;;2.43;;
8895;SDS011;4484;48.928;10.066;2023-04-16T11:25:21;3.40;;;3.03;;
8895;SDS011;4484;48.928;10.066;2023-04-16T11:27:53;3.13;;;2.53;;
8895;SDS011;4484;48.928;10.066;2023-04-16T11:30:41;4.00;;;3.57;;
8895;SDS011;4484;48.928;10.066;2023-04-16T11:33:08;3.63;;;3.23;;
8895;SDS011;4484;48.928;10.066;2023-04-16T11:35:37;3.23;;;2.70;;
8895;SDS011;4484;48.928;10.066;2023-04-16T11:38:04;3.87;;;3.43;;
8895;SDS011;4484;48.928;10.066;2023-04-16T11:40:32;4.43;;;3.43;;
8895;SDS011;4484;48.928;10.066;2023-04-16T11:43:03;3.73;;;3.10;;
8895;SDS011;4484;48.928;10.066;2023-04-16T11:45:40;3.87;;;3.43;;
8895;SDS011;4484;48.928;10.066;2023-04-16T11:48:45;4.13;;;2.73;;
8895;SDS011;4484;48.928;10.066;2023-04-16T11:51:14;3.23;;;2.83;;
8895;SDS011;4484;48.928;10.066;2023-04-16T11:54:00;3.00;;;2.70;;
8895;SDS011;4484;48.928;10.066;2023-04-16T11:56:28;2.73;;;2.30;;
8895;SDS011;4484;48.928;10.066;2023-04-16T11:59:09;2.87;;;2.63;;
8895;SDS011;4484;48.928;10.066;2023-04-16T12:01:38;3.10;;;2.80;;
8895;SDS011;4484;48.928;10.066;2023-04-16T12:04:06;2.83;;;2.23;;
8895;SDS011;4484;48.928;10.066;2023-04-16T12:06:34;3.17;;;2.60;;
8895;SDS011;4484;48.928;10.066;2023-04-16T12:09:20;2.57;;;2.37;;
8895;SDS011;4484;48.928;10.066;2023-04-16T12:11:51;3.03;;;2.53;;
8895;SDS011;4484;48.928;10.066;2023-04-16T12:14:18;2.63;;;2.40;;
8895;SDS011;4484;48.928;10.066;2023-04-16T12:16:45;2.87;;;2.40;;
8895;SDS011;4484;48.928;10.066;2023-04-16T12:19:13;2.40;;;2.20;;
8895;SDS011;4484;48.928;10.066;2023-04-16T12:21:44;2.80;;;2.33;;
8895;SDS011;4484;48.928;10.066;2023-04-16T12:24:13;2.47;;;2.10;;
8895;SDS011;4484;48.928;10.066;2023-04-16T12:26:43;3.40;;;2.70;;
8895;SDS011;4484;48.928;10.066;2023-04-16T12:29:15;2.30;;;2.10;;
8895;SDS011;4484;48.928;10.066;2023-04-16T12:31:47;2.53;;;1.90;;
8895;SDS011;4484;48.928;10.066;2023-04-16T12:34:15;2.30;;;2.10;;
8895;SDS011;4484;48.928;10.066;2023-04-16T12:36:43;3.57;;;1.80;;
8895;SDS011;4484;48.928;10.066;2023-04-16T12:39:11;2.70;;;2.20;;
8895;SDS011;4484;48.928;10.066;2023-04-16T12:41:40;4.17;;;2.03;;
8895;SDS011;4484;48.928;10.066;2023-04-16T12:44:11;3.60;;;1.67;;
8895;SDS011;4484;48.928;10.066;2023-04-16T12:46:42;2.30;;;2.10;;
8895;SDS011;4484;48.928;10.066;2023-04-16T12:49:09;2.20;;;1.90;;
8895;SDS011;4484;48.928;10.066;2023-04-16T12:51:37;2.77;;;2.10;;
8895;SDS011;4484;48.928;10.066;2023-04-16T12:54:05;3.50;;;2.37;;
8895;SDS011;4484;48.928;10.066;2023-04-16T12:56:35;2.30;;;2.10;;
8895;SDS011;4484;48.928;10.066;2023-04-16T12:59:02;2.40;;;2.20;;
8895;SDS011;4484;48.928;10.066;2023-04-16T13:01:29;3.10;;;2.60;;
8895;SDS011;4484;48.928;10.066;2023-04-16T13:03:56;3.43;;;1.93;;
8895;SDS011;4484;48.928;10.066;2023-04-16T13:06:23;2.43;;;2.07;;
8895;SDS011;4484;48.928;10.066;2023-04-16T13:08:50;2.80;;;2.20;;
8895;SDS011;4484;48.928;10.066;2023-04-16T13:11:16;2.43;;;2.23;;
8895;SDS011;4484;48.928;10.066;2023-04-16T13:13:44;2.33;;;2.00;;
8895;SDS011;4484;48.928;10.066;2023-04-16T13:16:11;2.53;;;2.33;;
8895;SDS011;4484;48.928;10.066;2023-04-16T13:18:39;2.50;;;2.20;;
8895;SDS011;4484;48.928;10.066;2023-04-16T13:21:06;2.53;;;2.33;;
8895;SDS011;4484;48.928;10.066;2023-04-16T13:23:34;3.23;;;2.60;;
8895;SDS011;4484;48.928;10.066;2023-04-16T13:26:00;3.00;;;2.43;;
8895;SDS011;4484;48.928;10.066;2023-04-16T13:28:27;3.20;;;2.90;;
8895;SDS011;4484;48.928;10.066;2023-04-16T13:30:54;2.70;;;2.50;;
8895;SDS011;4484;48.928;10.066;2023-04-16T13:33:21;3.30;;;3.00;;
8895;SDS011;4484;48.928;10.066;2023-04-16T13:35:48;3.23;;;2.93;;
8895;SDS011;4484;48.928;10.066;2023-04-16T13:38:16;3.27;;;2.97;;
8895;SDS011;4484;48.928;10.066;2023-04-16T13:40:43;3.50;;;3.20;;
8895;SDS011;4484;48.928;10.066;2023-04-16T13:43:10;3.17;;;2.80;;
8895;SDS011;4484;48.928;10.066;2023-04-16T13:45:36;2.97;;;2.50;;
8895;SDS011;4484;48.928;10.066;2023-04-16T13:48:04;3.60;;;3.30;;
8895;SDS011;4484;48.928;10.066;2023-04-16T13:50:31;3.00;;;2.70;;
8895;SDS011;4484;48.928;10.066;2023-04-16T13:52:58;3.33;;;2.90;;
8895;SDS011;4484;48.928;10.066;2023-04-16T13:55:24;3.37;;;3.00;;
8895;SDS011;4484;48.928;10.066;2023-04-16T13:57:51;3.60;;;3.13;;
8895;SDS011;4484;48.928;10.066;2023-04-16T14:00:18;4.43;;;2.93;;
8895;SDS011;4484;48.928;10.066;2023-04-16T14:02:45;3.27;;;2.87;;
8895;SDS011;4484;48.928;10.066;2023-04-16T14:05:14;2.93;;;2.63;;
8895;SDS011;4484;48.928;10.066;2023-04-16T14:07:41;3.33;;;3.03;;
8895;SDS011;4484;48.928;10.066;2023-04-16T14:10:08;4.17;;;3.13;;
8895;SDS011;4484;48.928;10.066;2023-04-16T14:12:35;3.90;;;3.50;;
8895;SDS011;4484;48.928;10.066;2023-04-16T14:15:06;3.20;;;2.90;;
8895;SDS011;4484;48.928;10.066;2023-04-16T14:17:34;4.10;;;3.70;;
8895;SDS011;4484;48.928;10.066;2023-04-16T14:20:04;3.90;;;3.50;;
8895;SDS011;4484;48.928;10.066;2023-04-16T14:22:32;4.07;;;3.60;;
8895;SDS011;4484;48.928;10.066;2023-04-16T14:24:59;4.00;;;3.60;;
8895;SDS011;4484;48.928;10.066;2023-04-16T14:27:26;3.97;;;3.57;;
8895;SDS011;4484;48.928;10.066;2023-04-16T14:29:53;3.23;;;2.93;;
8895;SDS011;4484;48.928;10.066;2023-04-16T14:32:20;3.60;;;3.20;;
8895;SDS011;4484;48.928;10.066;2023-04-16T14:34:47;4.10;;;3.10;;
8895;SDS011;4484;48.928;10.066;2023-04-16T14:37:15;3.83;;;3.40;;
8895;SDS011;4484;48.928;10.066;2023-04-16T14:39:43;3.50;;;2.90;;
8895;SDS011;4484;48.928;10.066;2023-04-16T14:42:09;2.97;;;2.67;;
8895;SDS011;4484;48.928;10.066;2023-04-16T14:44:36;4.17;;;3.23;;
8895;SDS011;4484;48.928;10.066;2023-04-16T14:47:03;2.67;;;2.47;;
8895;SDS011;4484;48.928;10.066;2023-04-16T14:49:30;3.73;;;3.30;;
8895;SDS011;4484;48.928;10.066;2023-04-16T14:51:59;3.20;;;2.90;;
8895;SDS011;4484;48.928;10.066;2023-04-16T14:54:31;3.50;;;3.00;;
8895;SDS011;4484;48.928;10.066;2023-04-16T14:56:58;3.27;;;2.97;;
8895;SDS011;4484;48.928;10.066;2023-04-16T14:59:27;3.07;;;2.70;;
8895;SDS011;4484;48.928;10.066;2023-04-16T15:01:54;3.43;;;3.10;;
8895;SDS011;4484;48.928;10.066;2023-04-16T15:04:26;3.13;;;2.77;;
8895;SDS011;4484;48.928;10.066;2023-04-16T15:06:55;3.50;;;3.20;;
8895;SDS011;4484;48.928;10.066;2023-04-16T15:09:24;5.83;;;2.90;;
8895;SDS011;4484;48.928;10.066;2023-04-16T15:11:52;4.83;;;3.10;;
8895;SDS011;4484;48.928;10.066;2023-04-16T15:14:20;3.53;;;2.60;;